Time,TemperatureF,DewpointF,PressureIn,WindDirection,WindDirectionDegrees,WindSpeedMPH,WindSpeedGustMPH,Humidity,HourlyPrecipIn,Conditions,Clouds,dailyrainin,SoftwareType,DateUTC
2013-06-27 00:02:00,84.0,-99.9,30.05,SSW,193,7.0,11.0,-999,-99.99,,,-99.99,,2013-06-27 05:02:00,
2013-06-27 00:12:00,84.0,-99.9,30.05,SSW,200,6.0,10.0,-999,-99.99,,,-99.99,,2013-06-27 05:12:00,
2013-06-27 00:33:00,84.0,-99.9,30.05,SSW,207,5.0,10.0,-999,-99.99,,,-99.99,,2013-06-27 05:33:00,
2013-06-27 00:42:00,84.0,-99.9,30.05,SSW,199,4.0,10.0,-999,-99.99,,,-99.99,,2013-06-27 05:42:00,
2013-06-27 00:53:00,84.0,-99.9,30.04,SSW,197,6.0,12.0,-999,-99.99,,,-99.99,,2013-06-27 05:53:00,
2013-06-27 01:02:00,84.0,-99.9,30.04,SSW,208,7.0,12.0,-999,-99.99,,,-99.99,,2013-06-27 06:02:00,
2013-06-27 01:12:00,84.0,-99.9,30.04,SSW,210,7.0,12.0,-999,-99.99,,,-99.99,,2013-06-27 06:12:00,
2013-06-27 01:34:00,83.0,-99.9,30.03,SSW,213,9.0,12.0,-999,-99.99,,,-99.99,,2013-06-27 06:34:00,
2013-06-27 01:43:00,83.0,-99.9,30.03,SW,216,8.0,12.0,-999,-99.99,,,-99.99,,2013-06-27 06:43:00,
2013-06-27 01:53:00,83.0,-99.9,30.03,SW,221,8.0,13.0,-999,-99.99,,,-99.99,,2013-06-27 06:53:00,
2013-06-27 02:02:00,83.0,-99.9,30.03,SW,222,10.0,13.0,-999,-99.99,,,-99.99,,2013-06-27 07:02:00,
2013-06-27 02:12:00,83.0,-99.9,30.03,SSW,207,9.0,13.0,-999,-99.99,,,-99.99,,2013-06-27 07:12:00,
2013-06-27 02:34:00,83.0,-99.9,30.03,SW,227,9.0,15.0,-999,-99.99,,,-99.99,,2013-06-27 07:34:00,
2013-06-27 02:43:00,83.0,-99.9,30.02,SW,227,9.0,14.0,-999,-99.99,,,-99.99,,2013-06-27 07:43:00,
2013-06-27 02:52:00,83.0,-99.9,30.02,SW,225,8.0,12.0,-999,-99.99,,,-99.99,,2013-06-27 07:52:00,
2013-06-27 03:01:00,83.0,-99.9,30.03,SW,231,9.0,12.0,-999,-99.99,,,-99.99,,2013-06-27 08:01:00,
2013-06-27 03:11:00,83.0,-99.9,30.02,SW,236,7.0,12.0,-999,-99.99,,,-99.99,,2013-06-27 08:11:00,
2013-06-27 03:34:00,83.0,-99.9,30.03,WSW,242,8.0,13.0,-999,-99.99,,,-99.99,,2013-06-27 08:34:00,
2013-06-27 03:44:00,83.0,-99.9,30.03,WSW,241,8.0,13.0,-999,-99.99,,,-99.99,,2013-06-27 08:44:00,
2013-06-27 03:52:00,83.0,-99.9,30.01,SW,227,9.0,14.0,-999,-99.99,,,-99.99,,2013-06-27 08:52:00,
2013-06-27 04:02:00,83.0,-99.9,30.01,WSW,239,9.0,14.0,-999,-99.99,,,-99.99,,2013-06-27 09:02:00,
2013-06-27 04:11:00,83.0,-99.9,30.01,SW,232,10.0,12.0,-999,-99.99,,,-99.99,,2013-06-27 09:11:00,
2013-06-27 04:34:00,83.0,-99.9,30.02,WSW,240,8.0,11.0,-999,-99.99,,,-99.99,,2013-06-27 09:34:00,
2013-06-27 04:43:00,83.0,-99.9,30.03,WSW,239,8.0,14.0,-999,-99.99,,,-99.99,,2013-06-27 09:43:00,
2013-06-27 04:53:00,83.0,-99.9,30.03,SW,235,9.0,11.0,-999,-99.99,,,-99.99,,2013-06-27 09:53:00,
2013-06-27 05:01:00,83.0,-99.9,30.03,WSW,237,6.0,12.0,-999,-99.99,,,-99.99,,2013-06-27 10:01:00,
2013-06-27 05:11:00,83.0,-99.9,30.03,SW,236,7.0,12.0,-999,-99.99,,,-99.99,,2013-06-27 10:11:00,
2013-06-27 05:32:00,83.0,-99.9,30.03,West,277,8.0,12.0,-999,-99.99,,,-99.99,,2013-06-27 10:32:00,
2013-06-27 05:44:00,83.0,-99.9,30.03,West,266,6.0,9.0,-999,-99.99,,,-99.99,,2013-06-27 10:44:00,
2013-06-27 05:54:00,83.0,-99.9,30.03,West,278,8.0,12.0,-999,-99.99,,,-99.99,,2013-06-27 10:54:00,
2013-06-27 06:02:00,83.0,-99.9,30.03,West,276,7.0,10.0,-999,-99.99,,,-99.99,,2013-06-27 11:02:00,
2013-06-27 06:12:00,83.0,-99.9,30.04,West,273,5.0,9.0,-999,-99.99,,,-99.99,,2013-06-27 11:12:00,
2013-06-27 06:33:00,83.0,-99.9,30.04,West,259,8.0,11.0,-999,-99.99,,,-99.99,,2013-06-27 11:33:00,
2013-06-27 06:43:00,82.0,-99.9,30.04,West,264,8.0,11.0,-999,-99.99,,,-99.99,,2013-06-27 11:43:00,
2013-06-27 06:53:00,83.0,-99.9,30.04,West,271,6.0,10.0,-999,-99.99,,,-99.99,,2013-06-27 11:53:00,
2013-06-27 07:02:00,83.0,-99.9,30.04,West,279,6.0,8.0,-999,-99.99,,,-99.99,,2013-06-27 12:02:00,
2013-06-27 07:12:00,83.0,-99.9,30.04,West,264,6.0,8.0,-999,-99.99,,,-99.99,,2013-06-27 12:12:00,
2013-06-27 07:34:00,83.0,-99.9,30.04,West,266,6.0,12.0,-999,-99.99,,,-99.99,,2013-06-27 12:34:00,
2013-06-27 07:42:00,83.0,-99.9,30.05,WNW,293,11.0,15.0,-999,-99.99,,,-99.99,,2013-06-27 12:42:00,
2013-06-27 08:01:00,83.0,-99.9,30.05,WNW,285,7.0,9.0,-999,-99.99,,,-99.99,,2013-06-27 13:01:00,
2013-06-27 08:11:00,83.0,-99.9,30.05,WNW,302,8.0,12.0,-999,-99.99,,,-99.99,,2013-06-27 13:11:00,
2013-06-27 08:34:00,83.0,-99.9,30.05,WNW,303,7.0,9.0,-999,-99.99,,,-99.99,,2013-06-27 13:34:00,
2013-06-27 08:43:00,83.0,-99.9,30.05,WNW,301,8.0,9.0,-999,-99.99,,,-99.99,,2013-06-27 13:43:00,
2013-06-27 08:53:00,83.0,-99.9,30.05,NW,313,10.0,12.0,-999,-99.99,,,-99.99,,2013-06-27 13:53:00,
2013-06-27 09:02:00,83.0,-99.9,30.05,WNW,299,7.0,11.0,-999,-99.99,,,-99.99,,2013-06-27 14:02:00,
2013-06-27 09:12:00,83.0,-99.9,30.05,WNW,298,10.0,11.0,-999,-99.99,,,-99.99,,2013-06-27 14:12:00,
2013-06-27 09:33:00,84.0,-99.9,30.04,WNW,301,10.0,13.0,-999,-99.99,,,-99.99,,2013-06-27 14:33:00,
2013-06-27 09:43:00,83.0,-99.9,30.04,NW,311,11.0,15.0,-999,-99.99,,,-99.99,,2013-06-27 14:43:00,
2013-06-27 09:52:00,83.0,-99.9,30.04,WNW,301,12.0,15.0,-999,-99.99,,,-99.99,,2013-06-27 14:52:00,
2013-06-27 10:01:00,83.0,-99.9,30.04,WNW,301,12.0,15.0,-999,-99.99,,,-99.99,,2013-06-27 15:01:00,
2013-06-27 10:12:00,84.0,-99.9,30.04,WNW,299,11.0,15.0,-999,-99.99,,,-99.99,,2013-06-27 15:12:00,
2013-06-27 10:33:00,84.0,-99.9,30.04,WNW,293,11.0,13.0,-999,-99.99,,,-99.99,,2013-06-27 15:33:00,
2013-06-27 10:42:00,84.0,-99.9,30.04,WNW,299,11.0,13.0,-999,-99.99,,,-99.99,,2013-06-27 15:42:00,
2013-06-27 10:52:00,85.0,-99.9,30.04,WNW,290,9.0,12.0,-999,-99.99,,,-99.99,,2013-06-27 15:52:00,
2013-06-27 11:02:00,85.0,-99.9,30.04,WNW,288,10.0,13.0,-999,-99.99,,,-99.99,,2013-06-27 16:02:00,
2013-06-27 11:11:00,84.0,-99.9,30.04,WNW,301,10.0,13.0,-999,-99.99,,,-99.99,,2013-06-27 16:11:00,
2013-06-27 11:34:00,85.0,-99.9,30.04,WNW,296,8.0,11.0,-999,-99.99,,,-99.99,,2013-06-27 16:34:00,
2013-06-27 11:43:00,85.0,-99.9,30.04,WNW,293,8.0,11.0,-999,-99.99,,,-99.99,,2013-06-27 16:43:00,
2013-06-27 11:53:00,85.0,-99.9,30.04,WNW,291,6.0,10.0,-999,-99.99,,,-99.99,,2013-06-27 16:53:00,
2013-06-27 12:02:00,86.0,-99.9,30.04,WNW,283,8.0,11.0,-999,-99.99,,,-99.99,,2013-06-27 17:02:00,
2013-06-27 12:11:00,86.0,-99.9,30.04,West,271,6.0,11.0,-999,-99.99,,,-99.99,,2013-06-27 17:11:00,
2013-06-27 12:33:00,87.0,-99.9,30.04,WSW,237,5.0,9.0,-999,-99.99,,,-99.99,,2013-06-27 17:33:00,
2013-06-27 12:43:00,86.0,-99.9,30.04,SW,230,6.0,10.0,-999,-99.99,,,-99.99,,2013-06-27 17:43:00,
2013-06-27 12:53:00,86.0,-99.9,30.03,SW,221,9.0,12.0,-999,-99.99,,,-99.99,,2013-06-27 17:53:00,
2013-06-27 13:02:00,87.0,-99.9,30.03,SW,223,9.0,14.0,-999,-99.99,,,-99.99,,2013-06-27 18:02:00,
2013-06-27 13:12:00,86.0,-99.9,30.03,SW,221,9.0,12.0,-999,-99.99,,,-99.99,,2013-06-27 18:12:00,
2013-06-27 13:32:00,86.0,-99.9,30.02,SW,220,10.0,12.0,-999,-99.99,,,-99.99,,2013-06-27 18:32:00,
2013-06-27 13:44:00,86.0,-99.9,30.02,SW,234,9.0,11.0,-999,-99.99,,,-99.99,,2013-06-27 18:44:00,
2013-06-27 13:52:00,87.0,-99.9,30.02,SW,223,9.0,13.0,-999,-99.99,,,-99.99,,2013-06-27 18:52:00,
2013-06-27 14:01:00,87.0,-99.9,30.01,SW,223,9.0,14.0,-999,-99.99,,,-99.99,,2013-06-27 19:01:00,
2013-06-27 14:11:00,86.0,-99.9,30.01,SW,236,11.0,13.0,-999,-99.99,,,-99.99,,2013-06-27 19:11:00,
2013-06-27 14:34:00,87.0,-99.9,30.00,SW,224,9.0,13.0,-999,-99.99,,,-99.99,,2013-06-27 19:34:00,
2013-06-27 14:43:00,86.0,-99.9,30.00,SW,224,10.0,13.0,-999,-99.99,,,-99.99,,2013-06-27 19:43:00,
2013-06-27 14:53:00,86.0,-99.9,30.00,SW,223,11.0,14.0,-999,-99.99,,,-99.99,,2013-06-27 19:53:00,
2013-06-27 15:02:00,87.0,-99.9,29.99,SW,226,9.0,13.0,-999,-99.99,,,-99.99,,2013-06-27 20:02:00,
2013-06-27 15:11:00,87.0,-99.9,29.99,SW,230,9.0,12.0,-999,-99.99,,,-99.99,,2013-06-27 20:11:00,
2013-06-27 15:40:00,87.0,-99.9,29.99,WSW,240,9.0,13.0,-999,-99.99,,,-99.99,,2013-06-27 20:40:00,
2013-06-27 15:49:00,88.0,-99.9,29.99,WSW,237,11.0,16.0,-999,-99.99,,,-99.99,,2013-06-27 20:49:00,
2013-06-27 15:57:00,88.0,-99.9,29.98,SW,233,8.0,15.0,-999,-99.99,,,-99.99,,2013-06-27 20:57:00,
2013-06-27 16:06:00,87.0,-99.9,29.98,SW,230,11.0,15.0,-999,-99.99,,,-99.99,,2013-06-27 21:06:00,
2013-06-27 16:50:00,87.0,-99.9,29.97,SW,228,11.0,16.0,-999,-99.99,,,-99.99,,2013-06-27 21:50:00,
2013-06-27 16:57:00,87.0,-99.9,29.97,SW,226,11.0,16.0,-999,-99.99,,,-99.99,,2013-06-27 21:57:00,
2013-06-27 17:07:00,87.0,-99.9,29.97,SW,235,9.0,16.0,-999,-99.99,,,-99.99,,2013-06-27 22:07:00,
2013-06-27 17:16:00,87.0,-99.9,29.97,SW,225,13.0,16.0,-999,-99.99,,,-99.99,,2013-06-27 22:16:00,
2013-06-27 17:25:00,87.0,-99.9,29.97,SW,225,13.0,16.0,-999,-99.99,,,-99.99,,2013-06-27 22:25:00,
2013-06-27 17:36:00,87.0,-99.9,29.96,SW,226,11.0,13.0,-999,-99.99,,,-99.99,,2013-06-27 22:36:00,
2013-06-27 17:50:00,87.0,-99.9,29.96,SW,229,9.0,14.0,-999,-99.99,,,-99.99,,2013-06-27 22:50:00,
2013-06-27 17:58:00,87.0,-99.9,29.96,SW,228,9.0,14.0,-999,-99.99,,,-99.99,,2013-06-27 22:58:00,
2013-06-27 18:17:00,87.0,-99.9,29.96,SW,236,10.0,13.0,-999,-99.99,,,-99.99,,2013-06-27 23:17:00,
2013-06-27 18:36:00,87.0,-99.9,29.95,WSW,239,9.0,12.0,-999,-99.99,,,-99.99,,2013-06-27 23:36:00,
2013-06-27 18:48:00,87.0,-99.9,29.95,WSW,237,8.0,12.0,-999,-99.99,,,-99.99,,2013-06-27 23:48:00,
2013-06-27 18:59:00,87.0,-99.9,29.95,WSW,240,11.0,13.0,-999,-99.99,,,-99.99,,2013-06-27 23:59:00,
2013-06-27 19:08:00,87.0,-99.9,29.95,WSW,241,9.0,14.0,-999,-99.99,,,-99.99,,2013-06-28 00:08:00,
2013-06-27 19:16:00,87.0,-99.9,29.95,WSW,238,11.0,14.0,-999,-99.99,,,-99.99,,2013-06-28 00:16:00,
2013-06-27 19:38:00,87.0,-99.9,29.96,WSW,239,9.0,13.0,-999,-99.99,,,-99.99,,2013-06-28 00:38:00,
2013-06-27 19:46:00,86.0,-99.9,29.96,SW,235,8.0,13.0,-999,-99.99,,,-99.99,,2013-06-28 00:46:00,
2013-06-27 19:56:00,86.0,-99.9,29.96,WSW,242,8.0,13.0,-999,-99.99,,,-99.99,,2013-06-28 00:56:00,
2013-06-27 20:09:00,86.0,-99.9,29.96,SW,230,9.0,12.0,-999,-99.99,,,-99.99,,2013-06-28 01:09:00,
2013-06-27 20:15:00,86.0,-99.9,29.96,WSW,241,8.0,12.0,-999,-99.99,,,-99.99,,2013-06-28 01:15:00,
2013-06-27 20:37:00,86.0,-99.9,29.95,SW,235,7.0,11.0,-999,-99.99,,,-99.99,,2013-06-28 01:37:00,
2013-06-27 20:49:00,86.0,-99.9,29.96,SW,234,6.0,10.0,-999,-99.99,,,-99.99,,2013-06-28 01:49:00,
2013-06-27 20:59:00,86.0,-99.9,29.96,WSW,239,8.0,11.0,-999,-99.99,,,-99.99,,2013-06-28 01:59:00,
2013-06-27 21:18:00,86.0,-99.9,29.96,SW,224,10.0,12.0,-999,-99.99,,,-99.99,,2013-06-28 02:18:00,
2013-06-27 21:38:00,86.0,-99.9,29.96,SW,234,7.0,13.0,-999,-99.99,,,-99.99,,2013-06-28 02:38:00,
2013-06-27 21:50:00,86.0,-99.9,29.96,SW,226,9.0,11.0,-999,-99.99,,,-99.99,,2013-06-28 02:50:00,
2013-06-27 21:58:00,86.0,-99.9,29.97,SW,230,8.0,14.0,-999,-99.99,,,-99.99,,2013-06-28 02:58:00,
2013-06-27 22:07:00,86.0,-99.9,29.97,WSW,238,10.0,13.0,-999,-99.99,,,-99.99,,2013-06-28 03:07:00,
2013-06-27 22:28:00,86.0,-99.9,29.97,SW,235,9.0,13.0,-999,-99.99,,,-99.99,,2013-06-28 03:28:00,
2013-06-27 22:46:00,86.0,-99.9,29.97,SW,236,7.0,10.0,-999,-99.99,,,-99.99,,2013-06-28 03:46:00,
2013-06-27 22:57:00,86.0,-99.9,29.97,WSW,238,8.0,11.0,-999,-99.99,,,-99.99,,2013-06-28 03:57:00,
2013-06-27 23:02:00,86.0,-99.9,29.97,WSW,237,7.0,12.0,-999,-99.99,,,-99.99,,2013-06-28 04:02:00,
2013-06-27 23:12:00,86.0,-99.9,29.97,WSW,238,7.0,14.0,-999,-99.99,,,-99.99,,2013-06-28 04:12:00,
2013-06-27 23:43:00,86.0,-99.9,29.96,SW,233,8.0,12.0,-999,-99.99,,,-99.99,,2013-06-28 04:43:00,
2013-06-27 23:53:00,86.0,-99.9,29.96,WSW,244,9.0,14.0,-999,-99.99,,,-99.99,,2013-06-28 04:53:00,